DFOO/BOY METAR and TAF weather

Enter ICAO airport designator
Station Type Date Time Source
DFOO METAR 2018/12/11 00:00 UTC NOAA

DFOO 110000Z 00000KT 6000 NSC 24/07 Q1017


Station Type Date Time Source
DFOO Decoded METAR 2018/12/11 00:00 UTC NOAA

Bobo-Dioulasso, Burkina Faso (DFOO) 11-10N 004-19W 460M
Dec 10, 2018 - 07:00 PM EST / 2018.12.11 0000 UTC
Wind: Calm:0
Visibility: 3 mile(s):0
Temperature: 75 F (24 C)
Dew Point: 44 F (7 C)
Relative Humidity: 33%
Pressure (altimeter): 30.03 in. Hg (1017 hPa)
ob: DFOO 110000Z 00000KT 6000 NSC 24/07 Q1017
cycle: 0

Station Type Date Time Source
DFOO TAF 2018/12/10 18:21 UTC NOAA

TAF DFOO 101700Z 1018/1118 06008KT 8000 NSC
TEMPO 1106/1110 2000 DU


Example: see airport list